Terminal Aerodrome Forecast
Issued by NWS Bismarck, ND

Home | Current Version | Previous Version | Text Only | Print | Product List | Glossary Off
Versions: 1 2 3 4 5 6 7 8 9 10 11 12 13 14 15 16 17 18 19 20 21 22 23

000
FTUS43 KBIS 271400 AAB
TAFBIS
TAF AMD
KBIS 271451Z 2715/2812 VRB04KT P6SM SCT015
     FM271600 16007KT P6SM FEW035
     FM280500 14004KT P6SM SCT025 OVC040=

USA.gov is the U.S. government's official web portal to all federal, state and local government web resources and services.